This is the latest recevied weather packets stored in our database for station/object DO0SOB-11. If no packets are shown the sender has not sent any weather packets the latest 10 day(s).
| Time | Temp. | Humidity | Pressure | Rain* | Wind** | Luminosity | Snow |
|---|---|---|---|---|---|---|---|
| 1777739379 | 22.22° C | 100% | 977.2 hPa | - | - | - | - |
| 1777738478 | 23.33° C | 89% | 977.3 hPa | - | - | - | - |
| 1777737578 | 22.22° C | 94% | 977.3 hPa | - | - | - | - |
| 1777736678 | 22.22° C | 86% | 977.4 hPa | - | - | - | - |
| 1777735778 | 23.33° C | 74% | 977.5 hPa | - | - | - | - |
| 1777734878 | 23.33° C | 76% | 977.7 hPa | - | - | - | - |
| 1777733978 | 23.89° C | 62% | 977.7 hPa | - | - | - | - |
| 1777733078 | 26.11° C | 50% | 978 hPa | - | - | - | - |
| 1777732178 | 25° C | 56% | 978.1 hPa | - | - | - | - |
| 1777731278 | 24.44° C | 63% | 978.2 hPa | - | - | - | - |
| 1777730378 | 23.89° C | 68% | 978.3 hPa | - | - | - | - |
| 1777729478 | 25.56° C | 50% | 978.4 hPa | - | - | - | - |
| 1777728578 | 25.56° C | 58% | 978.5 hPa | - | - | - | - |
| 1777727678 | 25° C | 67% | 978.6 hPa | - | - | - | - |
| 1777726778 | 25° C | 51% | 978.8 hPa | - | - | - | - |
| 1777725878 | 25.56° C | 47% | 978.9 hPa | - | - | - | - |
| 1777724978 | 26.67° C | 42% | 979.1 hPa | - | - | - | - |
| 1777724078 | 26.11° C | 59% | 979.2 hPa | - | - | - | - |
| 1777723178 | 25.56° C | 53% | 979.4 hPa | - | - | - | - |
| 1777722277 | 24.44° C | 69% | 979.5 hPa | - | - | - | - |
| 1777721377 | 24.44° C | 66% | 979.8 hPa | - | - | - | - |
| 1777720477 | 25° C | 60% | 979.8 hPa | - | - | - | - |
| 1777719577 | 23.89° C | 51% | 979.9 hPa | - | - | - | - |
| 1777718677 | 25° C | 50% | 979.9 hPa | - | - | - | - |
| 1777717777 | 23.89° C | 58% | 980.2 hPa | - | - | - | - |
* Rain since midnight (hover to see other rain measurements)
** Current wind speed in m/s (hover to see current wind gust speed)